»·PEaware :: WAT169 KLAS-KSNA

WAT169 :: KLAS-KSNA

FLIGHT INFORMATION

Flight Status: Arrived
Operator: Unknown
More flights by this operator :: More flights under this callsign
Pilot: Marty P. (27464)
Aircraft: BOEING 737-800
(B738)
More flights by this aircraft type
Origin: KLAS McCarran Intl
United States
Destination: KSNA John Wayne-Orange Co
United States
More flights between these airports :: More routes between these airports
Route: BOACH8 WHIGG FEYLA DSNEE4
File this flight plan on PilotEdge
Remarks:
Altitude:
(Current/Filed)
28,000ft
Speed:
(Current/Filed)
470kts
Departed: 17-May-20 07:18 PM
Arrived: 17-May-20 07:58 PM
Distance/Time
Traveled:
197nm/0:40
Distance/Time
To Go:
Arrived

Flight Plot

Page will automatically refresh every two minutes.


Map Options




Map Legend


Flown Route
Filed Route
Departure Airport
Arrival Airport
Navaid (VOR, NDB)
Fix

Horizontal Profiles

Position Reports

Time Latitude Longitude Heading Altitude Ground
Speed
17-May-20 18:58 36.079550 -115.146692 29 2191ft 0kts
17-May-20 18:59 36.079550 -115.146692 29 2191ft 0kts
17-May-20 19:00 36.079550 -115.146692 29 2191ft 0kts
17-May-20 19:01 36.079550 -115.146692 29 2191ft 0kts
17-May-20 19:02 36.079550 -115.146692 29 2191ft 0kts
17-May-20 19:03 36.079235 -115.147017 70 2191ft 2kts
17-May-20 19:04 36.079412 -115.147592 155 2191ft 1kts
17-May-20 19:05 36.079472 -115.147622 157 2191ft 0kts
17-May-20 19:06 36.079472 -115.147622 157 2191ft 0kts
17-May-20 19:07 36.079472 -115.147622 157 2191ft 0kts
17-May-20 19:08 36.079472 -115.147622 157 2191ft 0kts
17-May-20 19:09 36.078485 -115.146510 97 2191ft 6kts
17-May-20 19:10 36.078269 -115.143072 90 2191ft 14kts
17-May-20 19:11 36.078271 -115.136899 90 2191ft 18kts
17-May-20 19:12 36.078272 -115.132754 90 2191ft 13kts
17-May-20 19:13 36.078277 -115.126277 90 2191ft 18kts
17-May-20 19:14 36.077828 -115.122033 128 2191ft 5kts
17-May-20 19:15 36.077442 -115.121479 141 2191ft 2kts
17-May-20 19:16 36.076437 -115.122542 269 2191ft 36kts
17-May-20 19:17 36.077155 -115.173625 264 3426ft 194kts
17-May-20 19:18 36.062664 -115.247748 227 5497ft 249kts
17-May-20 19:19 36.002580 -115.284247 200 6988ft 237kts
17-May-20 19:20 35.936453 -115.304230 186 9563ft 250kts
17-May-20 19:22 35.864490 -115.314522 184 11813ft 296kts
17-May-20 19:23 35.770422 -115.307424 177 12874ft 364kts
17-May-20 19:24 35.670575 -115.320565 209 15351ft 370kts
17-May-20 19:25 35.595899 -115.405478 227 18239ft 369kts
17-May-20 19:26 35.525905 -115.499761 227 18883ft 371kts
17-May-20 19:27 35.457083 -115.592417 227 21669ft 350kts
17-May-20 19:28 35.394842 -115.676262 226 24120ft 346kts
17-May-20 19:29 35.328915 -115.764808 226 25852ft 360kts
17-May-20 19:30 35.259421 -115.858058 227 26888ft 379kts
17-May-20 19:31 35.184643 -115.955427 225 27700ft 407kts
17-May-20 19:32 35.104089 -116.056513 225 27881ft 423kts
17-May-20 19:33 35.021063 -116.160889 225 27874ft 435kts
17-May-20 19:34 34.936011 -116.267682 225 27888ft 440kts
17-May-20 19:35 34.854876 -116.369616 225 27879ft 413kts
17-May-20 19:36 34.774000 -116.472446 225 27865ft 427kts
17-May-20 19:37 34.691655 -116.574876 221 27006ft 404kts
17-May-20 19:38 34.603431 -116.662797 218 24313ft 410kts
17-May-20 19:38 34.531457 -116.733135 218 22181ft 389kts
17-May-20 19:40 34.441109 -116.832829 223 19362ft 369kts
17-May-20 19:41 34.366164 -116.919862 223 16984ft 364kts
17-May-20 19:41 34.306549 -116.988673 223 15172ft 356kts
17-May-20 19:43 34.213549 -117.072402 211 13962ft 359kts
17-May-20 19:43 34.142113 -117.118534 205 13007ft 357kts
17-May-20 19:44 34.054660 -117.165072 205 12980ft 310kts
17-May-20 19:45 33.984952 -117.212898 225 12190ft 275kts
17-May-20 19:46 33.936158 -117.280570 229 11051ft 264kts
17-May-20 19:47 33.890928 -117.344580 229 9908ft 249kts
17-May-20 19:48 33.845636 -117.408582 229 8724ft 250kts
17-May-20 19:49 33.821134 -117.483981 274 7478ft 255kts
17-May-20 19:50 33.831107 -117.567982 276 6249ft 244kts
17-May-20 19:51 33.833130 -117.647972 269 5078ft 242kts
17-May-20 19:52 33.833005 -117.729134 268 3871ft 239kts
17-May-20 19:53 33.804090 -117.788601 206 2644ft 215kts
17-May-20 19:54 33.758167 -117.816456 208 1653ft 143kts
17-May-20 19:55 33.722628 -117.839066 208 976ft 143kts
17-May-20 19:56 33.687869 -117.861117 208 238ft 141kts
17-May-20 19:57 33.669778 -117.872152 163 66ft 11kts
17-May-20 19:58 33.669456 -117.870578 45 66ft 10kts
17-May-20 19:59 33.672890 -117.867508 46 66ft 15kts
17-May-20 20:00 33.675564 -117.865447 82 66ft 5kts

Navigation Log

Ident Type
Flight plan parsing failed, navigation log unavailable